createdAt,value
2023-08-29T00:19:09.561Z,12.90
2023-08-29T00:21:37.183Z,12.90
2023-08-29T00:24:05.211Z,14.40
2023-08-29T00:26:32.655Z,12.80
2023-08-29T00:31:28.292Z,12.90
2023-08-29T01:03:33.618Z,12.60
2023-08-29T01:11:17.846Z,12.60
2023-08-29T01:16:53.727Z,12.70
2023-08-29T01:19:23.704Z,12.60
2023-08-29T01:22:39.788Z,12.50
2023-08-29T01:27:48.414Z,12.60
2023-08-29T01:30:17.256Z,12.60
2023-08-29T01:32:45.829Z,12.70
2023-08-29T01:35:15.844Z,12.70
2023-08-29T01:40:11.958Z,12.70
2023-08-29T01:45:08.139Z,12.70
2023-08-29T01:50:06.140Z,12.60
2023-08-29T01:55:02.769Z,12.60
2023-08-29T01:57:35.238Z,12.60
2023-08-29T02:00:04.703Z,12.50
2023-08-29T02:32:07.484Z,12.30
2023-08-29T03:01:41.785Z,12.00
2023-08-29T03:09:04.865Z,12.00
2023-08-29T03:25:24.094Z,12.00
2023-08-29T03:37:43.435Z,11.80
2023-08-29T03:55:06.517Z,11.80
2023-08-29T04:00:01.783Z,11.80
2023-08-29T04:05:13.377Z,11.80
2023-08-29T04:10:09.878Z,11.40
2023-08-29T04:37:17.915Z,11.40
2023-08-29T04:47:11.924Z,11.10
2023-08-29T04:49:40.234Z,11.00
2023-08-29T04:57:05.496Z,11.00
2023-08-29T05:04:29.574Z,11.20
2023-08-29T05:11:52.992Z,13.30
2023-08-29T05:24:12.748Z,11.30
2023-08-29T05:41:33.268Z,11.50
2023-08-29T05:46:28.985Z,12.20
2023-08-29T05:53:54.808Z,11.70
2023-08-29T05:56:22.350Z,11.70
2023-08-29T05:58:49.983Z,11.70
2023-08-29T06:03:45.425Z,11.70
2023-08-29T06:23:30.415Z,11.60
2023-08-29T06:25:59.070Z,11.60
2023-08-29T06:28:28.196Z,11.50
2023-08-29T06:30:55.923Z,11.60
2023-08-29T06:40:59.622Z,11.80
2023-08-29T06:55:49.636Z,11.60
2023-08-29T06:58:17.349Z,11.60
2023-08-29T07:05:40.905Z,11.70
2023-08-29T07:10:36.826Z,11.60
2023-08-29T07:13:05.815Z,11.60
2023-08-29T07:15:33.329Z,11.90
2023-08-29T07:18:00.756Z,11.70
2023-08-29T07:20:28.611Z,11.80
2023-08-29T07:22:56.763Z,11.80
2023-08-29T07:25:38.902Z,11.90
2023-08-29T07:28:09.483Z,11.90
2023-08-29T07:30:45.116Z,12.10
2023-08-29T07:35:42.780Z,12.00
2023-08-29T07:43:09.350Z,12.10
2023-08-29T07:48:06.517Z,12.30
2023-08-29T07:50:34.334Z,12.30
2023-08-29T07:55:31.690Z,12.50
2023-08-29T08:02:57.328Z,12.70
2023-08-29T08:05:25.152Z,12.70
2023-08-29T08:10:21.239Z,12.70
2023-08-29T08:22:53.118Z,12.80
2023-08-29T08:27:48.464Z,12.80
2023-08-29T08:42:40.533Z,13.30
2023-08-29T08:45:08.980Z,13.30
2023-08-29T08:50:07.137Z,13.40
2023-08-29T08:55:03.730Z,13.50
2023-08-29T08:59:59.777Z,13.40
2023-08-29T09:02:28.734Z,13.40
2023-08-29T09:10:07.910Z,13.50
2023-08-29T09:12:35.881Z,13.50
2023-08-29T09:15:06.604Z,13.50
2023-08-29T09:17:34.198Z,13.50
2023-08-29T09:22:34.574Z,13.50
2023-08-29T09:25:05.856Z,13.60
2023-08-29T09:27:44.748Z,13.50
2023-08-29T09:30:15.398Z,13.50
2023-08-29T09:32:49.133Z,13.50
2023-08-29T09:35:19.359Z,13.50
2023-08-29T09:37:56.407Z,13.50
2023-08-29T09:43:04.003Z,13.50
2023-08-29T09:45:33.358Z,13.00
2023-08-29T09:48:07.340Z,13.50
2023-08-29T09:50:37.422Z,13.40
2023-08-29T09:55:47.438Z,13.40
2023-08-29T10:00:45.307Z,13.40
2023-08-29T10:05:45.163Z,13.40
2023-08-29T10:10:43.416Z,13.40
2023-08-29T10:13:12.895Z,13.60
2023-08-29T10:15:42.292Z,13.60
2023-08-29T10:20:40.754Z,13.60
2023-08-29T10:23:11.221Z,13.50
2023-08-29T10:25:40.100Z,13.50
2023-08-29T10:28:13.705Z,13.50
2023-08-29T10:30:50.362Z,13.70
2023-08-29T10:35:50.784Z,13.80
2023-08-29T10:38:19.659Z,13.80
2023-08-29T10:40:47.473Z,13.80
2023-08-29T10:43:21.115Z,13.80
2023-08-29T10:48:46.989Z,13.90
2023-08-29T10:53:54.209Z,13.80
2023-08-29T10:56:39.594Z,13.90
2023-08-29T11:01:35.250Z,13.90
2023-08-29T11:04:14.058Z,13.90
2023-08-29T11:06:56.079Z,13.80
2023-08-29T11:09:26.207Z,13.70
2023-08-29T11:12:11.774Z,13.80
2023-08-29T11:14:54.242Z,13.90
2023-08-29T11:17:22.466Z,13.90
2023-08-29T11:19:56.505Z,13.90
2023-08-29T11:22:26.484Z,13.90
2023-08-29T11:24:55.940Z,13.90
2023-08-29T11:27:25.031Z,13.90
2023-08-29T11:35:07.505Z,14.00
2023-08-29T11:40:10.109Z,14.10
2023-08-29T11:45:46.957Z,14.20
2023-08-29T11:50:49.314Z,14.20
2023-08-29T11:53:42.541Z,14.10
2023-08-29T11:56:13.736Z,14.10
2023-08-29T12:01:10.853Z,14.10
2023-08-29T12:03:40.311Z,14.10
2023-08-29T12:06:14.541Z,14.00
2023-08-29T12:08:45.182Z,13.90
2023-08-29T12:11:15.394Z,13.90
2023-08-29T12:14:00.268Z,13.80
2023-08-29T12:19:09.766Z,13.70
2023-08-29T12:24:13.134Z,13.40
2023-08-29T12:48:52.418Z,13.50
2023-08-29T12:53:50.711Z,13.10
2023-08-29T12:56:18.087Z,13.20
2023-08-29T12:58:45.595Z,13.20
2023-08-29T13:01:17.897Z,13.30
2023-08-29T13:03:45.417Z,13.30
2023-08-29T13:06:13.003Z,13.40
2023-08-29T13:08:40.554Z,13.40
2023-08-29T13:11:08.054Z,13.40
2023-08-29T13:13:35.502Z,13.40
2023-08-29T13:16:03.119Z,13.40
2023-08-29T13:18:30.695Z,13.50
2023-08-29T13:20:58.118Z,13.40
2023-08-29T13:23:26.279Z,13.40
2023-08-29T13:25:55.072Z,13.40
2023-08-29T13:28:22.631Z,13.30
2023-08-29T13:30:49.993Z,13.30
2023-08-29T13:33:17.289Z,13.30
2023-08-29T13:35:44.733Z,13.20
2023-08-29T13:38:12.063Z,13.20
2023-08-29T13:40:39.522Z,13.20
2023-08-29T13:43:06.843Z,13.10
2023-08-29T13:45:34.552Z,12.20
2023-08-29T13:48:02.330Z,13.10
2023-08-29T13:50:30.064Z,13.00
2023-08-29T13:52:57.536Z,12.80
2023-08-29T13:55:25.026Z,12.60
2023-08-29T13:57:52.453Z,12.50
2023-08-29T14:00:20.585Z,12.30
2023-08-29T14:02:48.015Z,12.20
2023-08-29T14:05:15.833Z,12.30
2023-08-29T14:07:43.267Z,12.20
2023-08-29T14:10:10.859Z,12.30
2023-08-29T14:12:38.430Z,12.50
2023-08-29T14:15:07.093Z,12.70
2023-08-29T14:17:34.726Z,12.40
2023-08-29T14:20:02.372Z,12.40
2023-08-29T14:22:30.108Z,12.30
2023-08-29T14:24:57.571Z,12.40
2023-08-29T14:27:25.116Z,12.50
2023-08-29T14:29:52.890Z,12.60
2023-08-29T14:32:23.464Z,12.50
2023-08-29T14:34:50.896Z,12.60
2023-08-29T14:37:18.455Z,12.60
2023-08-29T14:39:48.379Z,12.60
2023-08-29T14:42:15.717Z,12.60
2023-08-29T14:44:43.081Z,12.60
2023-08-29T14:47:10.498Z,12.60
2023-08-29T14:49:37.895Z,12.60
2023-08-29T14:52:06.211Z,12.70
2023-08-29T14:54:33.670Z,12.60
2023-08-29T14:57:01.158Z,12.60
2023-08-29T14:59:28.867Z,12.60
2023-08-29T15:01:56.371Z,12.50
2023-08-29T15:04:23.730Z,12.50
2023-08-29T15:06:51.314Z,12.60
2023-08-29T15:09:18.890Z,12.60
2023-08-29T15:11:47.716Z,12.60
2023-08-29T15:22:35.179Z,12.60
2023-08-29T15:25:02.595Z,12.60
2023-08-29T15:27:30.955Z,12.60
2023-08-29T15:29:58.695Z,12.50
2023-08-29T15:32:26.630Z,12.50
2023-08-29T15:34:54.403Z,12.50
2023-08-29T15:37:21.950Z,12.30
2023-08-29T15:39:49.439Z,12.40
2023-08-29T15:42:17.328Z,12.30
2023-08-29T15:44:52.852Z,12.20
2023-08-29T15:47:20.203Z,12.30
2023-08-29T15:49:47.544Z,12.30
2023-08-29T15:52:15.285Z,12.30
2023-08-29T15:54:44.072Z,12.30
2023-08-29T15:57:12.066Z,12.30
2023-08-29T15:59:39.859Z,12.20
2023-08-29T16:02:07.163Z,12.30
2023-08-29T16:04:37.724Z,12.30
2023-08-29T16:07:05.960Z,12.30
2023-08-29T16:09:33.519Z,12.30
2023-08-29T16:12:04.412Z,12.40
2023-08-29T16:14:32.037Z,12.30
2023-08-29T16:16:59.656Z,12.50
2023-08-29T16:19:27.144Z,12.50
2023-08-29T16:21:54.958Z,12.60
2023-08-29T16:24:22.293Z,12.60
2023-08-29T16:26:49.749Z,12.50
2023-08-29T16:29:17.155Z,12.60
2023-08-29T16:31:45.008Z,12.50
2023-08-29T16:34:12.527Z,12.50
2023-08-29T16:36:40.041Z,12.40
2023-08-29T16:39:07.452Z,12.40
2023-08-29T16:41:34.965Z,12.50
2023-08-29T16:44:03.344Z,12.40
2023-08-29T16:46:35.811Z,12.40
2023-08-29T16:49:03.501Z,12.40
2023-08-29T16:51:31.183Z,12.30
2023-08-29T16:53:58.977Z,12.30
2023-08-29T16:56:26.557Z,12.30
2023-08-29T16:58:53.949Z,12.30
2023-08-29T17:01:21.440Z,12.30
2023-08-29T17:03:48.966Z,12.30
2023-08-29T17:06:16.470Z,12.30
2023-08-29T17:08:43.850Z,12.30
2023-08-29T17:11:13.685Z,12.40
2023-08-29T17:13:41.060Z,12.30
2023-08-29T17:16:08.751Z,12.30
2023-08-29T17:18:36.134Z,12.20
2023-08-29T17:21:03.797Z,12.30
2023-08-29T17:23:31.453Z,12.20
2023-08-29T17:26:00.828Z,12.10
2023-08-29T17:28:28.538Z,12.10
2023-08-29T17:30:56.907Z,12.20
2023-08-29T17:33:25.615Z,12.00
2023-08-29T17:35:53.474Z,12.00
2023-08-29T17:38:20.895Z,12.00
2023-08-29T17:40:48.273Z,12.00
2023-08-29T17:43:16.026Z,11.90
2023-08-29T17:45:46.452Z,11.90
2023-08-29T17:48:13.956Z,12.00
2023-08-29T17:50:47.957Z,12.00
2023-08-29T17:53:17.838Z,11.90
2023-08-29T17:55:45.262Z,11.90
2023-08-29T17:58:12.840Z,11.80
2023-08-29T18:00:40.309Z,11.90
2023-08-29T18:03:08.221Z,11.90
2023-08-29T18:05:35.794Z,11.90
2023-08-29T18:08:03.542Z,11.90
2023-08-29T18:10:30.946Z,11.80
2023-08-29T18:12:58.303Z,11.70
2023-08-29T18:15:26.027Z,11.60
2023-08-29T18:17:53.523Z,11.70
2023-08-29T18:20:21.051Z,11.70
2023-08-29T18:22:48.840Z,11.70
2023-08-29T18:25:16.614Z,11.70
2023-08-29T18:27:43.970Z,11.60
2023-08-29T18:30:12.147Z,11.60
2023-08-29T18:35:08.462Z,11.60
2023-08-29T18:37:35.852Z,11.60
2023-08-29T18:40:04.195Z,11.60
2023-08-29T18:42:31.796Z,11.60
2023-08-29T18:44:59.218Z,11.60
2023-08-29T18:47:26.638Z,11.50
2023-08-29T18:49:54.227Z,11.60
2023-08-29T18:52:21.737Z,11.50
2023-08-29T18:54:49.186Z,11.50
2023-08-29T18:57:16.954Z,11.50
2023-08-29T18:59:44.542Z,11.50
2023-08-29T19:02:11.920Z,11.50
2023-08-29T19:04:39.317Z,11.40
2023-08-29T19:07:06.767Z,11.40
2023-08-29T19:09:34.628Z,11.40
2023-08-29T19:12:01.981Z,11.40
2023-08-29T19:14:29.402Z,11.20
2023-08-29T19:16:56.792Z,11.20
2023-08-29T19:19:24.225Z,11.10
2023-08-29T19:21:51.707Z,11.00
2023-08-29T19:24:19.879Z,11.00
2023-08-29T19:26:47.294Z,11.00
2023-08-29T19:29:15.239Z,11.00
2023-08-29T19:31:43.097Z,11.00
2023-08-29T19:34:10.681Z,10.80
2023-08-29T19:36:38.103Z,11.00
2023-08-29T19:39:16.764Z,10.70
2023-08-29T19:41:45.967Z,11.00
2023-08-29T19:44:13.381Z,10.90
2023-08-29T19:46:40.783Z,10.80
2023-08-29T19:49:08.256Z,10.90
2023-08-29T19:51:35.649Z,10.90
2023-08-29T19:54:03.040Z,10.70
2023-08-29T19:56:31.315Z,10.90
2023-08-29T19:58:58.822Z,10.80
2023-08-29T20:01:26.259Z,10.70
2023-08-29T20:03:53.734Z,10.70
2023-08-29T20:06:21.772Z,10.70
2023-08-29T20:08:49.718Z,10.70
2023-08-29T20:11:17.181Z,10.70
2023-08-29T20:13:44.828Z,10.80
2023-08-29T20:16:12.597Z,10.80
2023-08-29T20:18:40.365Z,11.20
2023-08-29T20:21:07.862Z,10.80
2023-08-29T20:23:42.008Z,10.70
2023-08-29T20:26:16.106Z,10.70
2023-08-29T20:28:43.463Z,10.60
2023-08-29T20:31:11.059Z,10.60
2023-08-29T20:33:38.554Z,10.60
2023-08-29T20:36:06.303Z,10.70
2023-08-29T20:38:33.911Z,10.60
2023-08-29T20:41:01.275Z,10.70
2023-08-29T20:43:28.737Z,10.70
2023-08-29T20:45:56.213Z,10.70
2023-08-29T20:48:23.656Z,10.70
2023-08-29T20:51:00.230Z,10.60
2023-08-29T20:53:31.826Z,10.70
2023-08-29T20:55:59.377Z,10.70
2023-08-29T20:58:26.806Z,10.60
2023-08-29T21:01:03.581Z,10.50
2023-08-29T21:03:36.598Z,10.50
2023-08-29T21:06:04.615Z,10.50
2023-08-29T21:08:32.634Z,10.50
2023-08-29T21:11:00.313Z,10.60
2023-08-29T21:13:27.740Z,10.60
2023-08-29T21:15:55.450Z,10.70
2023-08-29T21:18:23.170Z,10.60
2023-08-29T21:21:03.634Z,10.60
2023-08-29T21:23:31.109Z,10.70
2023-08-29T21:25:58.640Z,10.60
2023-08-29T21:28:27.777Z,10.60
2023-08-29T21:30:56.761Z,10.50
2023-08-29T21:33:24.701Z,10.60
2023-08-29T21:35:52.826Z,10.40
2023-08-29T21:38:21.439Z,10.50
2023-08-29T21:40:48.984Z,10.40
2023-08-29T21:43:24.079Z,10.50
2023-08-29T21:45:59.837Z,10.50
2023-08-29T21:48:28.362Z,10.60
2023-08-29T21:50:56.253Z,10.50
2023-08-29T21:53:24.014Z,10.60
2023-08-29T21:55:52.848Z,10.60
2023-08-29T21:58:20.973Z,10.60
2023-08-29T22:00:52.766Z,10.60
2023-08-29T22:03:24.684Z,10.60
2023-08-29T22:05:53.358Z,10.60
2023-08-29T22:08:22.030Z,10.60
2023-08-29T22:10:49.991Z,10.50
2023-08-29T22:13:17.634Z,10.40
2023-08-29T22:15:45.247Z,10.70
2023-08-29T22:18:13.053Z,10.50
2023-08-29T22:20:40.946Z,10.40
2023-08-29T22:23:08.515Z,10.40
2023-08-29T22:25:36.903Z,10.30
2023-08-29T22:28:04.800Z,10.30
2023-08-29T22:30:32.326Z,10.30
2023-08-29T22:32:59.750Z,10.30
2023-08-29T22:35:27.859Z,10.30
2023-08-29T22:37:55.271Z,10.40
2023-08-29T22:40:22.907Z,10.40
2023-08-29T22:42:50.331Z,10.40
2023-08-29T22:45:19.069Z,10.30
2023-08-29T22:47:51.569Z,10.50
2023-08-29T22:50:19.413Z,10.30
2023-08-29T22:52:46.771Z,10.30
2023-08-29T22:55:14.224Z,10.30
2023-08-29T22:57:41.672Z,10.30
2023-08-29T23:00:09.586Z,10.30
2023-08-29T23:02:37.086Z,10.30
2023-08-29T23:05:05.182Z,10.20
2023-08-29T23:07:32.585Z,10.30
2023-08-29T23:10:00.080Z,10.20
2023-08-29T23:12:27.567Z,10.10
2023-08-29T23:14:54.949Z,10.10
2023-08-29T23:17:22.353Z,10.00
2023-08-29T23:19:50.104Z,10.00
2023-08-29T23:22:17.463Z,10.00
2023-08-29T23:24:45.159Z,10.10
2023-08-29T23:27:12.662Z,10.10
2023-08-29T23:29:40.211Z,10.10
2023-08-29T23:32:07.780Z,10.10
2023-08-29T23:34:35.195Z,10.10
2023-08-29T23:37:02.927Z,10.10
2023-08-29T23:39:30.406Z,10.00
2023-08-29T23:41:58.082Z,10.00
2023-08-29T23:44:25.645Z,10.10
2023-08-29T23:46:53.012Z,10.10
2023-08-29T23:49:20.368Z,10.00
2023-08-29T23:51:48.030Z,10.00
2023-08-29T23:54:15.361Z,10.00
2023-08-29T23:56:42.771Z,10.00
2023-08-29T23:59:10.251Z,10.00
